createdAt,value
2019-03-22T00:01:40.508Z,28.65
2019-03-22T00:04:10.526Z,29.67
2019-03-22T00:06:40.645Z,33.08
2019-03-22T00:09:10.970Z,31.17
2019-03-22T00:11:41.088Z,36.65
2019-03-22T00:14:12.846Z,36.45
2019-03-22T00:16:46.140Z,32.23
2019-03-22T00:19:16.261Z,30.55
2019-03-22T00:21:46.378Z,31.35
2019-03-22T00:24:17.829Z,29.05
2019-03-22T00:26:50.926Z,31.52
2019-03-22T00:29:21.245Z,30.37
2019-03-22T00:31:52.902Z,33.53
2019-03-22T00:34:23.222Z,34.05
2019-03-22T00:36:53.657Z,35.98
2019-03-22T00:39:23.873Z,42.55
2019-03-22T00:41:54.201Z,31.75
2019-03-22T00:44:24.417Z,28.02
2019-03-22T00:46:56.789Z,30.90
2019-03-22T00:49:27.112Z,33.20
2019-03-22T00:51:57.642Z,31.82
2019-03-22T00:54:27.967Z,31.62
2019-03-22T00:56:59.826Z,30.43
2019-03-22T00:59:30.459Z,31.87
2019-03-22T01:02:13.818Z,37.58
2019-03-22T01:04:44.520Z,30.95
2019-03-22T01:07:16.690Z,34.15
2019-03-22T01:09:46.705Z,35.83
2019-03-22T01:12:16.929Z,39.95
2019-03-22T01:14:47.457Z,36.45
2019-03-22T01:17:17.780Z,29.45
2019-03-22T01:19:48.104Z,39.50
2019-03-22T01:22:18.326Z,40.65
2019-03-22T01:30:04.972Z,41.00
2019-03-22T01:32:36.549Z,35.33
2019-03-22T01:35:10.945Z,36.25
2019-03-22T01:37:42.803Z,34.00
2019-03-22T01:40:15.892Z,40.33
2019-03-22T01:42:48.774Z,40.48
2019-03-22T01:45:18.996Z,36.25
2019-03-22T01:47:49.115Z,36.23
2019-03-22T01:50:19.340Z,41.60
2019-03-22T01:52:49.455Z,35.30
2019-03-22T01:55:19.678Z,34.80
2019-03-22T01:57:53.387Z,39.50
2019-03-22T02:02:55.360Z,33.88
2019-03-22T02:05:25.992Z,38.05
2019-03-22T02:07:56.215Z,34.23
2019-03-22T02:10:27.869Z,38.50
2019-03-22T02:12:58.194Z,34.15
2019-03-22T02:15:29.190Z,38.02
2019-03-22T02:17:59.668Z,35.23
2019-03-22T02:20:29.782Z,36.05
2019-03-22T02:23:00.109Z,37.53
2019-03-22T02:25:30.224Z,35.63
2019-03-22T02:28:04.476Z,33.70
2019-03-22T02:30:34.458Z,31.50
2019-03-22T02:33:04.780Z,36.70
2019-03-22T02:35:35.004Z,35.30
2019-03-22T02:38:05.226Z,40.48
2019-03-22T02:40:35.451Z,36.23
2019-03-22T02:43:05.685Z,36.83
2019-03-22T02:45:35.890Z,31.73
2019-03-22T02:48:05.910Z,35.95
2019-03-22T02:50:36.131Z,37.98
2019-03-22T02:53:07.277Z,29.57
2019-03-22T02:55:39.030Z,34.13
2019-03-22T02:58:20.307Z,27.50
2019-03-22T03:00:53.351Z,36.98
2019-03-22T03:03:24.031Z,31.48
2019-03-22T03:05:54.318Z,36.13
2019-03-22T03:08:27.120Z,33.60
2019-03-22T03:10:56.952Z,31.50
2019-03-22T03:13:28.504Z,36.00
2019-03-22T03:15:58.727Z,28.95
2019-03-22T03:18:28.746Z,31.57
2019-03-22T03:20:58.964Z,33.67
2019-03-22T03:23:29.187Z,28.25
2019-03-22T03:25:59.407Z,31.23
2019-03-22T03:28:36.471Z,31.30
2019-03-22T03:31:01.593Z,25.72
2019-03-22T03:33:31.728Z,22.50
2019-03-22T03:36:02.969Z,29.60
2019-03-22T03:38:33.691Z,31.20
2019-03-22T03:41:04.770Z,26.05
2019-03-22T03:43:35.056Z,26.65
2019-03-22T03:46:05.183Z,26.35
2019-03-22T03:48:35.508Z,25.75
2019-03-22T03:51:05.726Z,31.23
2019-03-22T03:53:35.740Z,26.85
2019-03-22T03:56:10.888Z,32.55
2019-03-22T03:58:52.221Z,26.00
2019-03-22T04:01:12.550Z,29.07
2019-03-22T04:03:42.670Z,26.35
2019-03-22T04:06:13.915Z,27.07
2019-03-22T04:08:44.136Z,27.20
2019-03-22T04:11:17.532Z,28.32
2019-03-22T04:16:18.899Z,29.63
2019-03-22T04:18:49.335Z,30.10
2019-03-22T04:21:19.647Z,30.20
2019-03-22T04:23:49.870Z,29.55
2019-03-22T04:26:20.195Z,32.60
2019-03-22T04:29:06.011Z,27.60
2019-03-22T04:31:23.094Z,28.73
2019-03-22T04:33:53.215Z,32.42
2019-03-22T04:36:23.334Z,31.73
2019-03-22T04:38:53.557Z,33.25
2019-03-22T04:41:29.320Z,29.12
2019-03-22T04:43:59.333Z,31.42
2019-03-22T04:46:29.443Z,32.23
2019-03-22T04:48:59.665Z,31.73
2019-03-22T04:51:29.989Z,38.42
2019-03-22T04:54:01.389Z,35.70
2019-03-22T04:56:31.970Z,38.48
2019-03-22T04:59:02.499Z,34.25
2019-03-22T05:01:32.617Z,32.73
2019-03-22T05:04:04.785Z,29.63
2019-03-22T05:06:35.107Z,30.65
2019-03-22T05:09:10.234Z,28.10
2019-03-22T05:11:40.865Z,31.65
2019-03-22T05:14:28.099Z,28.45
2019-03-22T05:17:00.246Z,27.98
2019-03-22T05:19:30.999Z,29.65
2019-03-22T05:22:01.426Z,25.08
2019-03-22T05:24:33.745Z,27.20
2019-03-22T05:27:04.636Z,26.00
2019-03-22T05:29:35.675Z,28.75
2019-03-22T05:32:08.159Z,24.67
2019-03-22T05:34:38.474Z,28.03
2019-03-22T05:37:08.803Z,24.92
2019-03-22T05:39:39.021Z,27.93
2019-03-22T05:42:09.241Z,27.22
2019-03-22T05:44:39.575Z,31.55
2019-03-22T05:47:09.686Z,33.15
2019-03-22T05:49:40.112Z,32.53
2019-03-22T05:52:10.539Z,29.40
2019-03-22T05:54:41.056Z,35.20
2019-03-22T05:57:13.516Z,25.02
2019-03-22T05:59:48.167Z,28.30
2019-03-22T06:02:18.390Z,29.60
2019-03-22T06:04:48.611Z,33.35
2019-03-22T06:07:18.833Z,25.05
2019-03-22T06:09:50.530Z,32.10
2019-03-22T06:12:21.327Z,35.92
2019-03-22T06:14:51.753Z,31.45
2019-03-22T06:17:21.870Z,53.02
2019-03-22T06:19:52.094Z,31.35
2019-03-22T06:22:22.417Z,98.40
2019-03-22T06:24:52.638Z,29.37
2019-03-22T06:27:22.860Z,34.35
2019-03-22T06:29:54.407Z,52.67
2019-03-22T06:32:25.045Z,191.22
2019-03-22T06:34:55.266Z,35.03
2019-03-22T06:37:27.127Z,31.37
2019-03-22T06:40:00.363Z,35.08
2019-03-22T06:42:33.202Z,43.25
2019-03-22T06:45:03.425Z,41.70
2019-03-22T06:47:33.749Z,43.15
2019-03-22T06:50:08.478Z,40.00
2019-03-22T06:52:38.699Z,32.55
2019-03-22T06:55:11.693Z,29.57
2019-03-22T06:57:42.111Z,29.15
2019-03-22T07:00:13.455Z,27.30
2019-03-22T07:02:43.887Z,35.40
2019-03-22T07:05:14.107Z,28.62
2019-03-22T07:07:44.520Z,32.88
2019-03-22T07:10:14.859Z,24.05
2019-03-22T07:12:45.082Z,33.65
2019-03-22T07:15:15.306Z,27.60
2019-03-22T07:17:46.818Z,83.80
2019-03-22T07:20:17.080Z,29.23
2019-03-22T07:22:47.401Z,42.10
2019-03-22T07:28:09.454Z,82.08
2019-03-22T07:30:41.627Z,35.45
2019-03-22T07:33:11.943Z,31.75
2019-03-22T07:35:42.062Z,37.15
2019-03-22T07:38:13.512Z,38.13
2019-03-22T07:40:43.738Z,40.60
2019-03-22T07:43:13.962Z,33.55
2019-03-22T07:45:47.149Z,34.23
2019-03-22T07:48:17.678Z,27.87
2019-03-22T07:50:47.899Z,23.50
2019-03-22T07:53:19.498Z,23.85
2019-03-22T07:55:49.776Z,27.20
2019-03-22T07:58:19.896Z,19.42
2019-03-22T08:00:50.424Z,21.12
2019-03-22T08:03:21.875Z,23.67
2019-03-22T08:05:52.097Z,24.87
2019-03-22T08:08:25.495Z,23.18
2019-03-22T08:13:27.073Z,22.77
2019-03-22T08:15:59.448Z,27.48
2019-03-22T08:18:30.888Z,23.87
2019-03-22T08:21:01.127Z,24.27
2019-03-22T08:23:33.073Z,18.17
2019-03-22T08:26:05.958Z,23.12
2019-03-22T08:28:36.383Z,24.80
2019-03-22T08:31:06.610Z,25.37
2019-03-22T08:33:39.066Z,22.67
2019-03-22T08:36:09.135Z,23.87
2019-03-22T08:38:39.670Z,24.30
2019-03-22T08:41:10.974Z,24.07
2019-03-22T08:43:41.213Z,24.18
2019-03-22T08:46:14.322Z,20.72
2019-03-22T08:48:46.146Z,24.70
2019-03-22T08:51:16.470Z,24.85
2019-03-22T08:53:55.139Z,23.40
2019-03-22T08:56:20.498Z,23.67
2019-03-22T08:58:50.825Z,25.50
2019-03-22T09:01:22.065Z,22.50
2019-03-22T09:03:54.032Z,26.97
2019-03-22T09:06:24.355Z,22.50
2019-03-22T09:08:54.676Z,25.20
2019-03-22T09:11:25.032Z,29.42
2019-03-22T09:13:55.221Z,22.32
2019-03-22T09:16:25.559Z,20.70
2019-03-22T09:18:57.202Z,22.90
2019-03-22T09:21:27.424Z,26.97
2019-03-22T09:23:57.650Z,25.48
2019-03-22T09:26:27.875Z,24.80
2019-03-22T09:28:59.626Z,27.30
2019-03-22T09:31:33.226Z,24.50
2019-03-22T09:34:03.459Z,26.85
2019-03-22T09:36:33.671Z,21.50
2019-03-22T09:39:05.428Z,24.98
2019-03-22T09:41:37.311Z,27.30
2019-03-22T09:44:07.514Z,27.37
2019-03-22T09:46:39.078Z,24.18
2019-03-22T09:49:11.545Z,25.05
2019-03-22T09:51:41.869Z,28.73
2019-03-22T09:54:12.961Z,24.20
2019-03-22T09:56:47.212Z,26.65
2019-03-22T09:59:15.203Z,26.12
2019-03-22T10:01:45.515Z,24.27
2019-03-22T10:04:15.640Z,25.23
2019-03-22T10:06:46.059Z,25.45
2019-03-22T10:09:18.442Z,23.70
2019-03-22T10:12:08.264Z,23.32
2019-03-22T10:14:38.566Z,24.57
2019-03-22T10:17:08.966Z,23.75
2019-03-22T10:19:42.075Z,29.70
2019-03-22T10:22:13.659Z,28.77
2019-03-22T10:24:43.985Z,28.17
2019-03-22T10:27:14.268Z,25.43
2019-03-22T10:29:44.589Z,25.68
2019-03-22T10:32:14.912Z,26.85
2019-03-22T10:34:45.124Z,25.68
2019-03-22T10:37:15.951Z,23.15
2019-03-22T10:39:47.616Z,18.37
2019-03-22T10:45:12.123Z,23.02
2019-03-22T10:47:42.242Z,21.85
2019-03-22T10:50:12.566Z,25.27
2019-03-22T10:52:42.792Z,23.40
2019-03-22T10:55:29.257Z,23.25
2019-03-22T10:57:49.069Z,21.33
2019-03-22T11:00:19.393Z,20.75
2019-03-22T11:02:49.712Z,22.48
2019-03-22T11:05:21.475Z,24.05
2019-03-22T11:07:51.801Z,21.77
2019-03-22T11:10:24.890Z,26.85
2019-03-22T11:12:55.215Z,22.13
2019-03-22T11:15:25.434Z,24.07
2019-03-22T11:17:57.601Z,22.85
2019-03-22T11:20:27.824Z,23.57
2019-03-22T11:22:58.149Z,23.20
2019-03-22T11:25:28.266Z,27.10
2019-03-22T11:27:58.492Z,22.65
2019-03-22T11:30:45.711Z,19.87
2019-03-22T11:33:15.624Z,23.42
2019-03-22T11:35:47.282Z,23.60
2019-03-22T11:38:17.399Z,21.87
2019-03-22T11:40:49.248Z,21.50
2019-03-22T11:43:19.583Z,19.40
2019-03-22T11:45:49.805Z,21.40
2019-03-22T11:48:20.130Z,24.65
2019-03-22T11:50:50.555Z,25.65
2019-03-22T11:53:22.625Z,21.85
2019-03-22T11:55:52.848Z,21.75
2019-03-22T11:58:23.053Z,18.70
2019-03-22T12:00:53.389Z,22.48
2019-03-22T12:03:23.713Z,22.48
2019-03-22T12:05:56.703Z,20.05
2019-03-22T12:08:27.023Z,21.05
2019-03-22T12:10:58.884Z,20.00
2019-03-22T12:13:28.901Z,22.52
2019-03-22T12:16:02.196Z,22.40
2019-03-22T12:18:39.799Z,18.30
2019-03-22T12:21:10.113Z,16.93
2019-03-22T12:26:29.507Z,16.32
2019-03-22T12:28:59.724Z,17.75
2019-03-22T12:31:31.483Z,20.90
2019-03-22T12:34:01.807Z,21.30
2019-03-22T12:36:33.566Z,20.00
2019-03-22T12:39:05.432Z,23.30
2019-03-22T12:41:35.748Z,23.62
2019-03-22T12:44:05.969Z,23.92
2019-03-22T12:46:36.293Z,22.62
2019-03-22T12:49:09.177Z,19.62
2019-03-22T12:51:39.296Z,23.57
2019-03-22T12:54:09.521Z,18.23
2019-03-22T12:56:39.740Z,17.10
2019-03-22T12:59:09.963Z,21.48
2019-03-22T13:01:40.082Z,19.95
2019-03-22T13:04:10.405Z,22.05
2019-03-22T13:06:40.935Z,18.10
2019-03-22T13:11:44.724Z,17.85
2019-03-22T13:14:14.775Z,21.55
2019-03-22T13:16:47.966Z,21.15
2019-03-22T13:21:47.696Z,19.02
2019-03-22T13:24:18.017Z,26.33
2019-03-22T13:26:48.239Z,17.52
2019-03-22T13:29:20.408Z,18.65
2019-03-22T13:31:58.023Z,17.17
2019-03-22T13:34:28.327Z,18.65
2019-03-22T13:37:00.086Z,17.73
2019-03-22T13:39:30.411Z,22.27
2019-03-22T13:42:00.533Z,15.78
2019-03-22T13:44:30.748Z,19.35
2019-03-22T13:47:01.175Z,15.78
2019-03-22T13:49:34.162Z,15.80
2019-03-22T13:52:04.596Z,16.60
2019-03-22T13:54:34.708Z,14.13
2019-03-22T13:57:05.238Z,15.40
2019-03-22T13:59:35.459Z,15.40
2019-03-22T14:02:05.782Z,14.68
2019-03-22T14:04:37.028Z,17.45
2019-03-22T14:07:07.250Z,13.40
2019-03-22T14:09:37.370Z,15.53
2019-03-22T14:12:08.105Z,14.15
2019-03-22T14:14:38.223Z,15.78
2019-03-22T14:17:08.343Z,13.43
2019-03-22T14:19:40.100Z,16.23
2019-03-22T14:22:10.424Z,18.80
2019-03-22T14:24:42.284Z,23.87
2019-03-22T14:27:13.428Z,17.05
2019-03-22T14:29:44.366Z,20.95
2019-03-22T14:32:14.486Z,16.73
2019-03-22T14:34:44.810Z,16.35
2019-03-22T14:37:15.032Z,17.17
2019-03-22T14:39:45.254Z,15.80
2019-03-22T14:42:15.886Z,16.52
2019-03-22T14:44:46.218Z,19.90
2019-03-22T14:47:16.431Z,17.35
2019-03-22T14:49:46.679Z,17.55
2019-03-22T14:52:17.901Z,15.98
2019-03-22T14:54:48.538Z,19.10
2019-03-22T14:57:18.754Z,50.75
2019-03-22T14:59:58.371Z,18.00
2019-03-22T15:02:20.854Z,17.07
2019-03-22T15:07:57.223Z,18.32
2019-03-22T15:10:27.443Z,15.38
2019-03-22T15:12:57.872Z,17.32
2019-03-22T15:15:33.829Z,17.05
2019-03-22T15:18:06.101Z,21.45
2019-03-22T15:20:41.458Z,21.40
2019-03-22T15:23:28.862Z,18.07
2019-03-22T15:26:06.763Z,19.10
2019-03-22T15:28:45.024Z,18.52
2019-03-22T15:31:26.153Z,16.52
2019-03-22T15:34:01.085Z,17.95
2019-03-22T15:36:38.064Z,15.95
2019-03-22T15:39:13.007Z,20.70
2019-03-22T15:41:43.526Z,16.27
2019-03-22T15:44:13.910Z,16.15
2019-03-22T15:46:44.379Z,18.80
2019-03-22T15:49:17.676Z,18.35
2019-03-22T15:51:48.860Z,19.77
2019-03-22T15:54:27.643Z,14.98
2019-03-22T15:56:57.965Z,17.10
2019-03-22T15:59:36.892Z,20.10
2019-03-22T16:02:07.535Z,18.52
2019-03-22T16:04:39.178Z,23.35
2019-03-22T16:07:09.195Z,17.95
2019-03-22T16:09:39.522Z,21.57
2019-03-22T16:12:10.048Z,23.50
2019-03-22T16:14:40.371Z,21.10
2019-03-22T16:17:10.698Z,22.52
2019-03-22T16:19:40.918Z,25.95
2019-03-22T16:22:11.140Z,24.18
2019-03-22T16:24:41.258Z,19.82
2019-03-22T16:27:11.598Z,19.10
2019-03-22T16:29:42.933Z,20.48
2019-03-22T16:32:13.664Z,21.65
2019-03-22T16:34:43.886Z,22.17
2019-03-22T16:37:14.217Z,22.50
2019-03-22T16:39:44.230Z,18.32
2019-03-22T16:42:14.347Z,22.50
2019-03-22T16:45:37.590Z,26.42
2019-03-22T16:48:08.244Z,22.58
2019-03-22T16:50:39.489Z,20.62
2019-03-22T16:53:09.713Z,26.02
2019-03-22T16:55:40.035Z,24.85
2019-03-22T16:58:10.259Z,22.35
2019-03-22T17:00:40.490Z,26.33
2019-03-22T17:03:10.803Z,23.87
2019-03-22T17:05:41.132Z,21.45
2019-03-22T17:08:11.145Z,22.35
2019-03-22T17:10:41.802Z,24.10
2019-03-22T17:16:02.021Z,37.55
2019-03-22T17:18:32.718Z,45.38
2019-03-22T17:21:06.013Z,28.38
2019-03-22T17:23:37.359Z,31.35
2019-03-22T17:26:07.786Z,29.63
2019-03-22T17:28:38.304Z,35.63
2019-03-22T17:31:09.192Z,35.58
2019-03-22T17:34:00.106Z,39.33
2019-03-22T17:36:30.324Z,36.30
2019-03-22T17:39:02.057Z,36.00
2019-03-22T17:41:32.961Z,29.82
2019-03-22T17:44:03.207Z,34.10
2019-03-22T17:46:33.274Z,36.48
2019-03-22T17:49:03.486Z,34.90
2019-03-22T17:51:33.726Z,30.80
2019-03-22T17:54:03.927Z,34.88
2019-03-22T17:56:34.373Z,38.67
2019-03-22T17:59:08.978Z,34.18
2019-03-22T18:01:40.786Z,30.35
2019-03-22T18:04:10.793Z,37.20
2019-03-22T18:06:41.007Z,30.25
2019-03-22T18:09:11.138Z,24.20
2019-03-22T18:11:44.756Z,48.60
2019-03-22T18:14:14.791Z,38.17
2019-03-22T18:16:45.106Z,37.85
2019-03-22T18:19:15.319Z,45.05
2019-03-22T18:21:59.222Z,42.43
2019-03-22T18:24:29.372Z,35.80
2019-03-22T18:27:00.886Z,38.65
2019-03-22T18:29:31.485Z,40.70
2019-03-22T18:32:01.749Z,43.25
2019-03-22T18:34:34.855Z,40.70
2019-03-22T18:37:04.243Z,42.10
2019-03-22T18:39:36.083Z,41.33
2019-03-22T18:42:06.598Z,46.92
2019-03-22T18:44:36.680Z,46.70
2019-03-22T18:47:06.929Z,36.53
2019-03-22T18:49:38.658Z,37.03
2019-03-22T18:52:08.931Z,35.10
2019-03-22T18:54:39.030Z,38.78
2019-03-22T18:57:09.093Z,37.80
2019-03-22T18:59:40.729Z,35.60
2019-03-22T19:02:11.060Z,47.58
2019-03-22T19:04:44.360Z,51.77
2019-03-22T19:07:14.582Z,44.08
2019-03-22T19:09:44.662Z,50.98
2019-03-22T19:12:14.873Z,45.88
2019-03-22T19:14:45.065Z,48.17
2019-03-22T19:17:15.592Z,41.25
2019-03-22T19:19:47.553Z,37.67
2019-03-22T19:22:17.756Z,39.60
2019-03-22T19:24:47.831Z,57.05
2019-03-22T19:27:23.126Z,37.23
2019-03-22T19:29:54.783Z,38.88
2019-03-22T19:50:54.692Z,41.40
2019-03-22T19:53:26.929Z,47.78
2019-03-22T19:55:57.101Z,94.20
2019-03-22T19:58:27.173Z,39.18
2019-03-22T20:00:57.415Z,82.30
2019-03-22T20:03:27.819Z,68.30
2019-03-22T20:05:58.000Z,172.10
2019-03-22T20:08:28.095Z,103.12
2019-03-22T20:10:58.240Z,40.98
2019-03-22T20:13:29.913Z,34.38
2019-03-22T20:16:00.358Z,45.43
2019-03-22T20:18:30.536Z,43.75
2019-03-22T20:21:02.646Z,35.35
2019-03-22T20:23:35.120Z,35.92
2019-03-22T20:26:05.451Z,39.55
2019-03-22T20:28:36.805Z,40.80
2019-03-22T20:31:06.895Z,58.63
2019-03-22T20:33:37.070Z,70.00
2019-03-22T20:36:07.241Z,77.00
2019-03-22T20:38:37.491Z,54.90
2019-03-22T20:41:07.724Z,44.50
2019-03-22T20:43:37.897Z,48.17
2019-03-22T20:46:08.043Z,42.15
2019-03-22T20:48:38.330Z,45.03
2019-03-22T20:51:25.442Z,55.83
2019-03-22T20:53:55.735Z,67.72
2019-03-22T20:56:27.589Z,64.80
2019-03-22T20:58:57.789Z,79.82
2019-03-22T21:01:28.058Z,51.60
2019-03-22T21:03:59.808Z,46.33
2019-03-22T21:06:32.985Z,46.83
2019-03-22T21:09:06.717Z,46.42
2019-03-22T21:11:37.209Z,42.67
2019-03-22T21:14:08.997Z,53.73
2019-03-22T21:16:39.215Z,70.60
2019-03-22T21:19:09.675Z,56.28
2019-03-22T21:21:40.400Z,90.10
2019-03-22T21:24:10.718Z,102.72
2019-03-22T21:26:42.172Z,55.05
2019-03-22T21:29:12.514Z,39.83
2019-03-22T21:31:42.653Z,45.52
2019-03-22T21:34:12.899Z,43.38
2019-03-22T21:36:43.121Z,42.93
2019-03-22T21:39:13.536Z,34.30
2019-03-22T21:41:43.843Z,37.13
2019-03-22T21:44:14.708Z,37.25
2019-03-22T21:46:45.190Z,37.63
2019-03-22T21:49:16.853Z,37.38
2019-03-22T21:51:48.185Z,47.27
2019-03-22T21:54:18.553Z,37.28
2019-03-22T21:56:50.299Z,35.03
2019-03-22T21:59:20.631Z,35.23
2019-03-22T22:01:50.828Z,35.43
2019-03-22T22:04:28.994Z,40.52
2019-03-22T22:06:59.082Z,40.05
2019-03-22T22:09:31.977Z,42.67
2019-03-22T22:15:45.782Z,40.25
2019-03-22T22:18:18.034Z,38.50
2019-03-22T22:20:51.561Z,38.65
2019-03-22T22:23:21.737Z,141.03
2019-03-22T22:25:51.806Z,187.32
2019-03-22T22:28:25.138Z,58.35
2019-03-22T22:30:56.833Z,48.90
2019-03-22T22:33:28.534Z,88.27
2019-03-22T22:35:59.208Z,60.30
2019-03-22T22:38:29.456Z,64.65
2019-03-22T22:41:01.654Z,50.67
2019-03-22T22:43:35.130Z,54.20
2019-03-22T22:48:45.036Z,50.28
2019-03-22T22:54:10.030Z,46.85
2019-03-22T22:56:40.162Z,47.58
2019-03-22T22:59:10.307Z,44.90
2019-03-22T23:01:40.398Z,41.90
2019-03-22T23:04:10.506Z,48.73
2019-03-22T23:06:40.647Z,50.43
2019-03-22T23:09:12.351Z,43.78
2019-03-22T23:11:42.346Z,48.33
2019-03-22T23:14:12.458Z,47.27
2019-03-22T23:16:42.553Z,44.70
2019-03-22T23:19:15.354Z,41.45
2019-03-22T23:21:45.458Z,48.33
2019-03-22T23:27:46.201Z,45.17
2019-03-22T23:30:19.293Z,43.95
2019-03-22T23:32:49.619Z,52.90
2019-03-22T23:35:19.946Z,60.10
2019-03-22T23:37:51.491Z,52.23
2019-03-22T23:40:22.752Z,53.83
2019-03-22T23:42:54.812Z,43.50
2019-03-22T23:45:25.248Z,51.48
2019-03-22T23:47:55.575Z,49.00
2019-03-22T23:50:26.006Z,41.65
2019-03-22T23:52:55.977Z,39.13
2019-03-22T23:55:26.126Z,48.87
2019-03-22T23:57:57.911Z,47.13
